Time;durP1;ratioP1;P1;durP2;ratioP2;P2;SDS_P1;SDS_P2;PMS_P1;PMS_P2;Temp;Humidity;BMP_temperature;BMP_pressure;BME280_temperature;BME280_humidity;BME280_pressure;Samples;Min_cycle;Max_cycle;Signal;HPM_P1;HPM_P2
2022/04/11 00:02:23;;;;;;;0.30;0.30;;;3.10;99.90;;;;;;5033750;28;20044;-76
2022/04/11 00:04:50;;;;;;;0.30;0.30;;;3.30;99.90;;;;;;5016346;28;20022;-76
2022/04/11 00:07:15;;;;;;;0.30;0.30;;;3.30;99.90;;;;;;5033641;28;20029;-76
2022/04/11 00:09:43;;;;;;;0.20;0.20;;;3.40;99.90;;;;;;5033728;28;20389;-76
2022/04/11 00:12:09;;;;;;;0.73;0.73;;;3.40;99.90;;;;;;5015961;28;20056;-76
2022/04/11 00:14:35;;;;;;;0.30;0.30;;;3.40;99.90;;;;;;5033697;28;20025;-76
2022/04/11 00:17:02;;;;;;;0.30;0.30;;;3.30;99.90;;;;;;5033384;28;20595;-75
2022/04/11 00:19:28;;;;;;;0.30;0.30;;;3.20;99.90;;;;;;5033674;28;20095;-76
2022/04/11 00:21:54;;;;;;;0.30;0.30;;;3.10;99.90;;;;;;5033410;28;20104;-76
2022/04/11 00:24:19;;;;;;;0.98;0.50;;;3.00;99.90;;;;;;5033512;28;20044;-76
2022/04/11 00:26:45;;;;;;;0.25;0.25;;;3.10;99.90;;;;;;5033110;28;20065;-76
2022/04/11 00:29:11;;;;;;;0.30;0.30;;;3.00;99.90;;;;;;5033370;28;20068;-76
2022/04/11 00:31:37;;;;;;;0.30;0.30;;;3.30;99.90;;;;;;5015643;28;20087;-77
2022/04/11 00:34:02;;;;;;;0.30;0.30;;;3.30;99.90;;;;;;5033398;28;20049;-76
2022/04/11 00:36:28;;;;;;;0.30;0.30;;;3.50;99.90;;;;;;5033053;28;20030;-76
2022/04/11 00:38:54;;;;;;;0.30;0.30;;;3.50;99.90;;;;;;5015511;28;20040;-76
2022/04/11 00:41:19;;;;;;;0.30;0.30;;;3.40;99.90;;;;;;5032916;28;20385;-76
2022/04/11 00:43:45;;;;;;;0.20;0.20;;;3.30;99.90;;;;;;5015252;28;20029;-77
2022/04/11 00:46:11;;;;;;;0.22;0.22;;;3.30;99.90;;;;;;5032852;28;20025;-77
2022/04/11 00:48:37;;;;;;;0.30;0.30;;;3.20;99.90;;;;;;4999084;28;20033;-76
2022/04/11 00:51:12;;;;;;;0.30;0.30;;;3.10;99.90;;;;;;5032869;28;20156;-78
2022/04/11 00:53:41;;;;;;;0.30;0.30;;;3.10;99.90;;;;;;5014923;28;20489;-76
2022/04/11 00:56:11;;;;;;;0.75;0.75;;;3.00;99.90;;;;;;5014849;28;20439;-76
2022/04/11 00:58:39;;;;;;;0.32;0.32;;;2.80;99.90;;;;;;5015189;28;20022;-76
2022/04/11 01:01:06;;;;;;;0.30;0.30;;;2.80;99.90;;;;;;5015018;28;20518;-76
2022/04/11 01:03:32;;;;;;;0.30;0.30;;;3.00;99.90;;;;;;5033054;28;20311;-77
2022/04/11 01:05:59;;;;;;;0.30;0.30;;;3.10;99.90;;;;;;5032456;28;20024;-76
2022/04/11 01:08:25;;;;;;;0.30;0.30;;;3.00;99.90;;;;;;5014954;28;20024;-76
2022/04/11 01:10:52;;;;;;;0.30;0.30;;;3.00;99.90;;;;;;5014887;28;20104;-76
2022/04/11 01:13:18;;;;;;;0.30;0.30;;;3.10;99.90;;;;;;5015078;28;20586;-76
2022/04/11 01:15:55;;;;;;;0.30;0.30;;;3.10;99.90;;;;;;5032273;28;20017;-76
2022/04/11 01:18:20;;;;;;;0.30;0.30;;;3.00;99.90;;;;;;5032567;28;20486;-76
2022/04/11 01:20:46;;;;;;;0.30;0.30;;;3.00;99.90;;;;;;5014801;28;20076;-77
2022/04/11 01:23:12;;;;;;;0.30;0.30;;;3.10;99.90;;;;;;5014587;28;20026;-77
2022/04/11 01:25:39;;;;;;;0.30;0.30;;;2.90;99.90;;;;;;5032125;28;20021;-76
2022/04/11 01:28:05;;;;;;;0.30;0.30;;;3.00;99.90;;;;;;5032301;28;20029;-76
2022/04/11 01:30:31;;;;;;;0.30;0.30;;;2.90;99.90;;;;;;5032312;28;20021;-76
2022/04/11 01:32:57;;;;;;;0.30;0.30;;;2.90;99.90;;;;;;5032281;28;20036;-77
2022/04/11 01:35:27;;;;;;;0.30;0.30;;;3.00;99.90;;;;;;5014527;28;20075;-76
2022/04/11 01:37:54;;;;;;;0.40;0.40;;;2.80;99.90;;;;;;5032141;28;20028;-76
2022/04/11 01:40:20;;;;;;;0.28;0.28;;;2.70;99.90;;;;;;5014424;28;20033;-77
2022/04/11 01:42:46;;;;;;;0.30;0.30;;;2.70;99.90;;;;;;5014225;28;20397;-76
2022/04/11 01:45:14;;;;;;;0.30;0.30;;;2.60;99.90;;;;;;4997921;28;20021;-76
2022/04/11 01:47:40;;;;;;;0.25;0.25;;;2.60;99.90;;;;;;5014140;28;20048;-76
2022/04/11 01:50:07;;;;;;;0.30;0.30;;;2.60;99.90;;;;;;5032009;28;20033;-76
2022/04/11 01:52:34;;;;;;;0.30;0.30;;;2.50;99.90;;;;;;5031960;28;20026;-76
2022/04/11 01:55:03;;;;;;;0.30;0.30;;;2.70;99.90;;;;;;5031879;28;20517;-76
2022/04/11 01:57:30;;;;;;;0.30;0.30;;;2.70;99.90;;;;;;5031764;28;20032;-76
2022/04/11 01:59:56;;;;;;;0.30;0.30;;;2.70;99.90;;;;;;4997893;28;20036;-76
2022/04/11 02:02:22;;;;;;;0.30;0.30;;;2.60;99.90;;;;;;5031915;28;20037;-76
2022/04/11 02:04:48;;;;;;;0.40;0.40;;;2.70;99.90;;;;;;5020638;28;20030;-76
2022/04/11 02:07:13;;;;;;;0.30;0.30;;;2.70;99.90;;;;;;5020430;28;20021;-77
2022/04/11 02:09:39;;;;;;;0.40;0.40;;;2.70;99.90;;;;;;5020621;28;20448;-77
2022/04/11 02:12:05;;;;;;;0.40;0.40;;;2.70;99.90;;;;;;5020640;28;20040;-76
2022/04/11 02:14:31;;;;;;;0.30;0.30;;;2.80;99.90;;;;;;5038972;28;20028;-76
2022/04/11 02:16:57;;;;;;;2.28;0.93;;;2.90;99.90;;;;;;5038180;28;20033;-75
2022/04/11 02:19:22;;;;;;;0.30;0.30;;;2.90;99.90;;;;;;5038541;28;20147;-76
2022/04/11 02:21:48;;;;;;;0.30;0.30;;;2.80;99.90;;;;;;5020639;28;20400;-76
2022/04/11 02:24:14;;;;;;;0.30;0.30;;;2.80;99.90;;;;;;5020549;28;20500;-76
2022/04/11 02:26:40;;;;;;;0.30;0.30;;;2.80;99.90;;;;;;5020456;28;20026;-77
2022/04/11 02:29:06;;;;;;;0.32;0.32;;;2.90;99.90;;;;;;5038318;28;20075;-76
2022/04/11 02:31:31;;;;;;;0.30;0.30;;;2.90;99.90;;;;;;5038259;28;20029;-75
2022/04/11 02:33:57;;;;;;;0.30;0.30;;;2.90;99.90;;;;;;5020570;28;20034;-76
2022/04/11 02:36:23;;;;;;;0.40;0.40;;;2.80;99.90;;;;;;5037922;28;20025;-76
2022/04/11 02:38:49;;;;;;;0.47;0.47;;;2.70;99.90;;;;;;5004031;28;20029;-76
2022/04/11 02:41:15;;;;;;;0.30;0.30;;;2.80;99.90;;;;;;5020216;28;20071;-76
2022/04/11 02:43:40;;;;;;;0.30;0.30;;;2.90;99.90;;;;;;5037822;28;20041;-76
2022/04/11 02:46:06;;;;;;;0.30;0.30;;;2.90;99.90;;;;;;5020170;28;20025;-77
2022/04/11 02:48:32;;;;;;;0.30;0.30;;;2.90;99.90;;;;;;5038040;28;20484;-76
2022/04/11 02:50:57;;;;;;;0.30;0.30;;;2.90;99.90;;;;;;5038122;28;20025;-76
2022/04/11 02:53:23;;;;;;;0.57;0.57;;;2.80;99.90;;;;;;5038005;28;20057;-76
2022/04/11 02:55:49;;;;;;;0.25;0.25;;;2.70;99.90;;;;;;5037869;28;20033;-77
2022/04/11 02:58:17;;;;;;;0.30;0.30;;;2.40;99.90;;;;;;5037931;28;20040;-77
2022/04/11 03:00:43;;;;;;;0.30;0.30;;;2.30;99.90;;;;;;5038340;28;20025;-76
2022/04/11 03:03:10;;;;;;;0.30;0.30;;;2.50;99.90;;;;;;5038120;28;20021;-76
2022/04/11 03:05:37;;;;;;;0.30;0.30;;;2.40;99.90;;;;;;5020087;28;20053;-76
2022/04/11 03:08:02;;;;;;;0.30;0.30;;;2.50;99.90;;;;;;5003830;28;20286;-76
2022/04/11 03:10:28;;;;;;;0.30;0.30;;;2.40;99.90;;;;;;5037894;28;20092;-76
2022/04/11 03:12:54;;;;;;;0.30;0.30;;;2.40;99.90;;;;;;5003739;28;20029;-76
2022/04/11 03:15:20;;;;;;;0.55;0.55;;;2.40;99.90;;;;;;5017687;28;20024;-76
2022/04/11 03:17:45;;;;;;;0.30;0.30;;;2.50;99.90;;;;;;5016827;28;20026;-76
2022/04/11 03:20:11;;;;;;;0.55;0.55;;;2.50;99.90;;;;;;5017169;28;20033;-76
2022/04/11 03:22:37;;;;;;;0.30;0.30;;;2.60;99.90;;;;;;5034611;28;20021;-76
2022/04/11 03:25:03;;;;;;;0.38;0.38;;;2.60;99.90;;;;;;5034567;28;20025;-75
2022/04/11 03:27:29;;;;;;;0.25;0.25;;;2.60;99.90;;;;;;5016637;28;20083;-76
2022/04/11 03:29:54;;;;;;;0.38;0.38;;;2.70;99.90;;;;;;5034782;28;20033;-76
2022/04/11 03:32:21;;;;;;;0.30;0.30;;;2.80;99.90;;;;;;5016915;28;20049;-76
2022/04/11 03:34:46;;;;;;;0.25;0.25;;;2.70;99.90;;;;;;5000488;28;20026;-76
2022/04/11 03:37:12;;;;;;;0.30;0.30;;;2.50;99.90;;;;;;5016531;28;20036;-76
2022/04/11 03:39:38;;;;;;;0.30;0.30;;;2.40;99.90;;;;;;5000325;28;20033;-77
2022/04/11 03:42:04;;;;;;;0.30;0.30;;;2.50;99.90;;;;;;5016152;28;20179;-77
2022/04/11 03:44:30;;;;;;;0.30;0.30;;;2.40;99.90;;;;;;5034379;28;20504;-76
2022/04/11 03:46:55;;;;;;;0.30;0.30;;;2.30;99.90;;;;;;5016464;28;20122;-76
2022/04/11 03:49:21;;;;;;;0.30;0.30;;;2.40;99.90;;;;;;5053460;23;20091;-74
2022/04/11 03:51:47;;;;;;;0.30;0.30;;;2.60;99.90;;;;;;5035969;28;20044;-74
2022/04/11 03:54:13;;;;;;;0.30;0.30;;;2.60;99.90;;;;;;5054230;28;20074;-75
2022/04/11 03:56:38;;;;;;;0.40;0.40;;;2.50;99.90;;;;;;5036044;28;20047;-74
2022/04/11 03:59:04;;;;;;;0.40;0.40;;;2.40;99.90;;;;;;5054051;28;20029;-74
2022/04/11 04:01:30;;;;;;;0.30;0.30;;;2.30;99.90;;;;;;5035593;28;20435;-74
2022/04/11 04:03:56;;;;;;;0.30;0.30;;;2.20;99.90;;;;;;5053970;28;20021;-74
2022/04/11 04:06:22;;;;;;;0.30;0.30;;;2.20;99.90;;;;;;5035695;28;20074;-74
2022/04/11 04:08:47;;;;;;;0.30;0.30;;;2.30;99.90;;;;;;5036025;28;20448;-74
2022/04/11 04:11:13;;;;;;;0.38;0.38;;;2.30;99.90;;;;;;5035928;28;20488;-74
2022/04/11 04:13:39;;;;;;;0.30;0.30;;;2.40;99.90;;;;;;5019256;28;20036;-74
2022/04/11 04:16:05;;;;;;;0.60;0.60;;;2.40;99.90;;;;;;5018990;28;20025;-74
2022/04/11 04:18:30;;;;;;;0.30;0.30;;;2.50;99.90;;;;;;5035818;28;20029;-74
2022/04/11 04:20:56;;;;;;;0.20;0.20;;;2.30;99.90;;;;;;5053561;28;20040;-74
2022/04/11 04:23:22;;;;;;;0.38;0.38;;;2.20;99.90;;;;;;5035595;28;20032;-74
2022/04/11 04:25:48;;;;;;;0.47;0.38;;;2.30;99.90;;;;;;5035176;28;20025;-75
2022/04/11 04:28:17;;;;;;;0.30;0.30;;;2.30;99.90;;;;;;5052424;28;20025;-74
2022/04/11 04:30:46;;;;;;;0.30;0.30;;;2.50;99.90;;;;;;5053465;28;20056;-75
2022/04/11 04:33:14;;;;;;;0.60;0.60;;;2.70;99.90;;;;;;5053326;28;20021;-74
2022/04/11 04:35:40;;;;;;;0.30;0.30;;;2.50;99.90;;;;;;5053211;28;20025;-74
2022/04/11 04:38:06;;;;;;;0.30;0.30;;;2.50;99.90;;;;;;5035595;28;20525;-74
2022/04/11 04:40:32;;;;;;;0.30;0.30;;;2.40;99.90;;;;;;5053084;28;20096;-74
2022/04/11 04:42:58;;;;;;;1.50;1.42;;;2.40;99.90;;;;;;5053110;28;20406;-74
2022/04/11 04:45:24;;;;;;;0.30;0.30;;;2.40;99.90;;;;;;5034984;28;20483;-74
2022/04/11 04:47:49;;;;;;;0.30;0.30;;;2.20;99.90;;;;;;5053147;28;20027;-74
2022/04/11 04:50:15;;;;;;;0.30;0.30;;;2.30;99.90;;;;;;5018518;28;20039;-74
2022/04/11 04:52:41;;;;;;;0.30;0.30;;;2.60;99.90;;;;;;5052577;28;20074;-75
2022/04/11 04:55:07;;;;;;;0.40;0.40;;;2.80;99.90;;;;;;5052879;28;20033;-75
2022/04/11 04:57:34;;;;;;;0.30;0.30;;;2.70;99.90;;;;;;5052581;28;20496;-75
2022/04/11 05:00:00;;;;;;;0.30;0.30;;;2.50;99.90;;;;;;5052944;28;20032;-74
2022/04/11 05:02:26;;;;;;;0.30;0.30;;;2.30;99.90;;;;;;5052643;28;20044;-74
2022/04/11 05:04:51;;;;;;;0.30;0.30;;;2.20;99.90;;;;;;5052756;28;20432;-74
2022/04/11 05:07:17;;;;;;;0.50;0.50;;;2.10;99.90;;;;;;5052530;28;20029;-74
2022/04/11 05:09:43;;;;;;;0.40;0.40;;;2.30;99.90;;;;;;5034969;28;20071;-75
2022/04/11 05:12:09;;;;;;;0.43;0.43;;;2.50;99.90;;;;;;5052652;28;20094;-74
2022/04/11 05:14:34;;;;;;;0.30;0.30;;;2.70;99.90;;;;;;5052612;28;20029;-74
2022/04/11 05:17:00;;;;;;;0.30;0.30;;;2.70;99.90;;;;;;5052162;28;20468;-74
2022/04/11 05:19:26;;;;;;;0.30;0.30;;;2.90;99.90;;;;;;5052381;28;20100;-75
2022/04/11 05:21:52;;;;;;;0.30;0.30;;;2.90;99.90;;;;;;5052368;28;20028;-75
2022/04/11 05:24:17;;;;;;;0.28;0.28;;;3.10;99.90;;;;;;5052263;28;20120;-74
2022/04/11 05:26:43;;;;;;;0.28;0.28;;;2.90;99.90;;;;;;5034665;28;20461;-74
2022/04/11 05:29:09;;;;;;;0.50;0.50;;;3.00;99.90;;;;;;5056897;28;20025;-74
2022/04/11 05:31:34;;;;;;;0.30;0.30;;;2.70;99.90;;;;;;5054387;28;20024;-74
2022/04/11 05:34:01;;;;;;;0.30;0.30;;;2.50;99.90;;;;;;5062779;28;20025;-75
2022/04/11 05:36:27;;;;;;;0.40;0.40;;;2.40;99.90;;;;;;5051936;28;20388;-74
2022/04/11 05:38:53;;;;;;;0.30;0.30;;;2.60;99.90;;;;;;5051054;28;20100;-74
2022/04/11 05:41:19;;;;;;;0.30;0.30;;;2.60;99.90;;;;;;5042526;28;20119;-74
2022/04/11 05:43:45;;;;;;;0.30;0.30;;;2.50;99.90;;;;;;5046201;28;20017;-74
2022/04/11 05:46:11;;;;;;;0.30;0.30;;;2.70;99.90;;;;;;5072023;28;20368;-74
2022/04/11 05:48:40;;;;;;;0.40;0.40;;;2.80;99.90;;;;;;5072258;28;20056;-74
2022/04/11 05:51:06;;;;;;;0.40;0.40;;;2.70;99.90;;;;;;5053956;28;20445;-74
2022/04/11 05:53:32;;;;;;;0.25;0.25;;;2.70;99.90;;;;;;5072282;28;20028;-75
2022/04/11 05:55:57;;;;;;;0.30;0.30;;;2.80;99.90;;;;;;5054346;28;20395;-75
2022/04/11 05:58:23;;;;;;;0.30;0.30;;;3.00;99.90;;;;;;5055655;28;20051;-75
2022/04/11 06:00:49;;;;;;;0.30;0.30;;;3.20;99.90;;;;;;5052737;28;20029;-74
2022/04/11 06:03:15;;;;;;;0.30;0.30;;;3.00;99.90;;;;;;5061001;28;20017;-75
2022/04/11 06:05:40;;;;;;;0.30;0.30;;;3.10;99.90;;;;;;5060301;28;20353;-74
2022/04/11 06:08:06;;;;;;;0.28;0.28;;;3.40;99.90;;;;;;5072889;28;20024;-74
2022/04/11 06:10:32;;;;;;;0.30;0.30;;;3.40;99.90;;;;;;5072688;28;20025;-74
2022/04/11 06:12:58;;;;;;;0.30;0.30;;;3.50;99.90;;;;;;5071694;28;20033;-74
2022/04/11 06:15:24;;;;;;;0.30;0.30;;;3.60;99.90;;;;;;5071742;28;20107;-75
2022/04/11 06:17:49;;;;;;;0.52;0.52;;;3.70;99.90;;;;;;5046881;28;20542;-74
2022/04/11 06:20:16;;;;;;;4.53;1.65;;;3.30;99.90;;;;;;5019791;28;20060;-74
2022/04/11 06:22:42;;;;;;;0.30;0.30;;;3.20;99.90;;;;;;5071062;28;20108;-74
2022/04/11 06:25:08;;;;;;;2.40;2.05;;;2.90;99.90;;;;;;5063474;28;20462;-75
2022/04/11 06:27:37;;;;;;;2.20;0.93;;;2.90;99.90;;;;;;5017142;28;20100;-75
2022/04/11 06:30:06;;;;;;;0.30;0.30;;;3.00;99.90;;;;;;5051869;28;20095;-74
2022/04/11 06:32:34;;;;;;;0.50;0.50;;;3.00;99.90;;;;;;5033040;28;20480;-75
2022/04/11 06:35:00;;;;;;;0.20;0.20;;;3.10;99.90;;;;;;5053139;28;20021;-73
2022/04/11 06:37:27;;;;;;;0.60;0.60;;;3.20;99.90;;;;;;5051902;28;20033;-73
2022/04/11 06:39:54;;;;;;;0.55;0.50;;;3.30;99.90;;;;;;5051745;28;20049;-73
2022/04/11 06:42:20;;;;;;;0.20;0.20;;;3.40;99.90;;;;;;5051687;28;20060;-73
2022/04/11 06:44:46;;;;;;;0.28;0.28;;;3.40;99.90;;;;;;5051532;28;20052;-73
2022/04/11 06:47:11;;;;;;;0.20;0.20;;;3.70;99.90;;;;;;5051385;28;20057;-73
2022/04/11 06:49:38;;;;;;;0.30;0.30;;;3.70;99.90;;;;;;5033642;28;20128;-73
2022/04/11 06:52:05;;;;;;;0.20;0.20;;;3.60;99.90;;;;;;5055451;28;20064;-73
2022/04/11 06:54:31;;;;;;;0.38;0.38;;;3.80;99.90;;;;;;5055299;28;20036;-73
2022/04/11 06:56:58;;;;;;;0.30;0.30;;;4.00;99.90;;;;;;5054944;28;20033;-73
2022/04/11 06:59:26;;;;;;;0.30;0.30;;;4.10;99.90;;;;;;5037904;28;20212;-73
2022/04/11 07:01:52;;;;;;;0.20;0.20;;;4.00;99.90;;;;;;5054895;28;20402;-73
2022/04/11 07:04:18;;;;;;;0.30;0.30;;;4.10;99.90;;;;;;5034679;28;20080;-73
2022/04/11 07:06:44;;;;;;;0.30;0.30;;;4.40;99.90;;;;;;5032833;28;20067;-73
2022/04/11 07:09:10;;;;;;;0.20;0.20;;;4.50;99.90;;;;;;5051492;28;20071;-73
2022/04/11 07:11:36;;;;;;;0.38;0.38;;;4.60;99.90;;;;;;5050108;28;20044;-73
2022/04/11 07:14:03;;;;;;;0.45;0.45;;;4.70;99.90;;;;;;5049832;28;20475;-73
2022/04/11 07:16:29;;;;;;;0.40;0.40;;;4.50;99.90;;;;;;5050184;28;20373;-73
2022/04/11 07:18:54;;;;;;;0.22;0.22;;;4.30;99.90;;;;;;5051350;28;20043;-73
2022/04/11 07:21:20;;;;;;;0.30;0.30;;;4.30;99.90;;;;;;5051531;28;20151;-73
2022/04/11 07:23:46;;;;;;;0.30;0.30;;;4.50;99.90;;;;;;5038069;28;20039;-73
2022/04/11 07:26:12;;;;;;;0.20;0.20;;;4.50;99.90;;;;;;5051435;28;20473;-73
2022/04/11 07:28:37;;;;;;;0.22;0.22;;;4.80;99.90;;;;;;5049630;28;20078;-73
2022/04/11 07:31:03;;;;;;;0.25;0.25;;;5.00;99.90;;;;;;5051138;28;20056;-72
2022/04/11 07:33:29;;;;;;;0.20;0.20;;;5.10;99.90;;;;;;5051353;28;20033;-77
2022/04/11 07:35:55;;;;;;;0.20;0.20;;;5.20;99.90;;;;;;5051138;28;20029;-74
2022/04/11 07:38:21;;;;;;;0.20;0.20;;;5.50;99.90;;;;;;5051256;28;20480;-73
2022/04/11 07:40:47;;;;;;;0.30;0.30;;;5.40;99.90;;;;;;5051460;28;20036;-74
2022/04/11 07:43:13;;;;;;;0.30;0.30;;;5.20;99.90;;;;;;5050169;28;20040;-74
2022/04/11 07:45:38;;;;;;;0.73;0.73;;;5.40;99.90;;;;;;5049361;28;20032;-73
2022/04/11 07:48:04;;;;;;;0.32;0.32;;;5.50;99.20;;;;;;5050866;28;20163;-74
2022/04/11 07:50:30;;;;;;;4.72;1.95;;;5.70;99.10;;;;;;5050636;28;20032;-73
2022/04/11 07:52:56;;;;;;;0.20;0.20;;;5.80;99.80;;;;;;5050370;28;20131;-74
2022/04/11 07:55:24;;;;;;;0.20;0.20;;;6.10;98.40;;;;;;5050658;28;20544;-73
2022/04/11 07:57:50;;;;;;;0.30;0.30;;;6.30;99.40;;;;;;5050600;28;20021;-74
2022/04/11 08:00:16;;;;;;;0.22;0.22;;;6.30;99.20;;;;;;5050059;28;20108;-74
2022/04/11 08:02:42;;;;;;;0.25;0.25;;;6.60;96.70;;;;;;5038574;28;20033;-74
2022/04/11 08:05:08;;;;;;;0.20;0.20;;;6.80;96.40;;;;;;5050381;28;20045;-74
2022/04/11 08:07:35;;;;;;;0.75;0.75;;;6.80;95.90;;;;;;5049340;28;20025;-74
2022/04/11 08:10:02;;;;;;;1.17;1.17;;;7.00;95.40;;;;;;5048584;28;20061;-73
2022/04/11 08:12:28;;;;;;;1.20;1.10;;;6.90;95.90;;;;;;5050330;28;20044;-74
2022/04/11 08:14:54;;;;;;;0.52;0.52;;;7.00;96.80;;;;;;5050052;28;20428;-74
2022/04/11 08:17:19;;;;;;;0.20;0.20;;;7.20;95.80;;;;;;5050028;28;20036;-74
2022/04/11 08:19:45;;;;;;;0.20;0.20;;;7.20;96.60;;;;;;5050358;28;20528;-73
2022/04/11 08:22:11;;;;;;;0.80;0.80;;;7.70;95.10;;;;;;5050722;28;20032;-73
2022/04/11 08:24:37;;;;;;;0.20;0.20;;;7.90;93.90;;;;;;5050440;28;20412;-73
2022/04/11 08:27:03;;;;;;;0.50;0.50;;;7.90;93.80;;;;;;5050253;28;20096;-74
2022/04/11 08:29:28;;;;;;;0.60;0.60;;;8.20;93.90;;;;;;5050200;28;20033;-73
2022/04/11 08:31:54;;;;;;;1.23;1.13;;;8.30;93.70;;;;;;5031934;28;20035;-73
2022/04/11 08:34:20;;;;;;;1.17;0.95;;;8.60;92.60;;;;;;5050232;28;20443;-74
2022/04/11 08:36:46;;;;;;;0.20;0.20;;;8.60;91.80;;;;;;5049994;28;20103;-74
2022/04/11 08:39:13;;;;;;;1.70;1.13;;;8.90;90.30;;;;;;5049872;28;20484;-74
2022/04/11 08:41:38;;;;;;;0.20;0.20;;;8.90;86.80;;;;;;5050041;28;20025;-74
2022/04/11 08:44:05;;;;;;;0.30;0.30;;;8.70;79.30;;;;;;5049655;28;20056;-74
2022/04/11 08:46:33;;;;;;;1.17;1.17;;;8.90;77.10;;;;;;5047416;28;20029;-74
2022/04/11 08:49:01;;;;;;;0.20;0.20;;;9.00;75.70;;;;;;5049697;28;20650;-74
2022/04/11 08:51:29;;;;;;;0.30;0.30;;;9.30;74.20;;;;;;5049827;28;20563;-74
2022/04/11 08:53:56;;;;;;;0.30;0.30;;;9.40;78.50;;;;;;5049570;28;20028;-74
2022/04/11 08:56:22;;;;;;;0.20;0.20;;;9.30;78.20;;;;;;5049418;28;20033;-74
2022/04/11 08:58:48;;;;;;;0.90;0.90;;;9.30;77.00;;;;;;5031527;28;20492;-74
2022/04/11 09:01:13;;;;;;;0.25;0.25;;;9.70;76.10;;;;;;5049447;28;20033;-74
2022/04/11 09:03:42;;;;;;;0.32;0.32;;;10.10;76.10;;;;;;5049189;28;20108;-74
2022/04/11 09:06:14;;;;;;;0.40;0.40;;;10.30;76.60;;;;;;5029964;28;20031;-74
2022/04/11 09:09:00;;;;;;;4.18;0.93;;;10.40;75.50;;;;;;5031459;28;20059;-74
2022/04/11 09:11:35;;;;;;;0.63;0.63;;;10.80;74.00;;;;;;5028149;28;20033;-74
2022/04/11 09:14:03;;;;;;;0.20;0.20;;;10.70;70.70;;;;;;5025946;28;20440;-74
2022/04/11 09:16:48;;;;;;;0.30;0.30;;;10.90;70.60;;;;;;5010495;28;20025;-74
2022/04/11 09:19:20;;;;;;;3.03;0.98;;;11.00;69.70;;;;;;5029320;28;20030;-73
2022/04/11 09:21:46;;;;;;;1.17;0.43;;;11.40;68.90;;;;;;5028635;28;20029;-74
2022/04/11 09:24:15;;;;;;;0.32;0.32;;;11.50;67.70;;;;;;5012747;28;20149;-74
2022/04/11 09:26:40;;;;;;;0.55;0.55;;;11.60;68.60;;;;;;5050865;28;20310;-74
2022/04/11 09:29:06;;;;;;;0.30;0.30;;;11.90;66.20;;;;;;5045327;28;20063;-74
2022/04/11 09:31:33;;;;;;;0.75;0.70;;;12.40;65.20;;;;;;5045070;28;20084;-75
2022/04/11 09:34:12;;;;;;;0.20;0.20;;;12.30;62.50;;;;;;5043827;28;20032;-73
2022/04/11 09:36:55;;;;;;;0.47;0.40;;;12.60;62.20;;;;;;5042891;28;20285;-72
2022/04/11 09:39:22;;;;;;;1.75;0.75;;;12.90;60.70;;;;;;5033391;28;20559;-72
2022/04/11 09:41:49;;;;;;;0.20;0.20;;;13.00;61.10;;;;;;5042852;28;20033;-71
2022/04/11 09:44:25;;;;;;;0.22;0.22;;;13.40;59.80;;;;;;5042985;28;20025;-72
2022/04/11 09:46:55;;;;;;;0.70;0.70;;;13.40;59.10;;;;;;5043876;28;20033;-72
2022/04/11 09:49:21;;;;;;;0.30;0.30;;;13.10;60.00;;;;;;5043437;28;20036;-72
2022/04/11 09:52:09;;;;;;;0.20;0.20;;;13.30;59.00;;;;;;5044377;28;20029;-71
2022/04/11 09:54:37;;;;;;;0.35;0.35;;;14.00;57.10;;;;;;5041829;28;20532;-72
2022/04/11 09:57:05;;;;;;;1.08;0.55;;;14.10;57.50;;;;;;5042910;28;20038;-71
2022/04/11 09:59:31;;;;;;;0.32;0.28;;;14.30;56.50;;;;;;5042626;28;20116;-72
2022/04/11 10:01:58;;;;;;;0.40;0.40;;;14.20;57.50;;;;;;5042573;28;20037;-72
2022/04/11 10:04:24;;;;;;;0.30;0.30;;;14.40;57.20;;;;;;5042982;28;20075;-72
2022/04/11 10:06:53;;;;;;;0.20;0.20;;;14.70;56.40;;;;;;5031605;28;20029;-72
2022/04/11 10:09:22;;;;;;;2.05;0.70;;;15.10;55.30;;;;;;5042451;28;20477;-71
2022/04/11 10:11:48;;;;;;;0.55;0.55;;;14.60;55.00;;;;;;5033077;28;20841;-72
2022/04/11 10:14:25;;;;;;;0.95;0.63;;;14.90;54.70;;;;;;5033383;28;20060;-72
2022/04/11 10:16:54;;;;;;;0.47;0.47;;;15.20;54.40;;;;;;5042722;28;20025;-71
2022/04/11 10:19:26;;;;;;;1.02;0.93;;;15.70;54.70;;;;;;5042157;28;20500;-72
2022/04/11 10:22:04;;;;;;;0.20;0.20;;;15.60;53.00;;;;;;5042359;28;20056;-71
2022/04/11 10:24:35;;;;;;;0.28;0.28;;;15.60;52.30;;;;;;5044878;28;20091;-72
2022/04/11 10:27:22;;;;;;;0.22;0.22;;;15.60;53.00;;;;;;5034755;28;20025;-72
2022/04/11 10:29:53;;;;;;;0.20;0.20;;;15.80;53.20;;;;;;5046811;28;20033;-71
2022/04/11 10:32:24;;;;;;;1.03;0.73;;;15.80;51.90;;;;;;5046570;28;20029;-72
2022/04/11 10:35:08;;;;;;;1.48;0.82;;;16.10;51.00;;;;;;5045897;28;20366;-72
2022/04/11 10:37:40;;;;;;;0.10;0.10;;;15.60;51.50;;;;;;5046535;28;20037;-71
2022/04/11 10:40:18;;;;;;;0.30;0.30;;;15.20;54.10;;;;;;5045999;28;20111;-72
2022/04/11 10:43:11;;;;;;;0.65;0.65;;;15.80;52.70;;;;;;5045840;28;20068;-72
2022/04/11 10:45:42;;;;;;;0.10;0.10;;;15.90;49.80;;;;;;5024385;28;20045;-72
2022/04/11 10:48:10;;;;;;;0.50;0.50;;;15.90;50.80;;;;;;5046273;28;20029;-72
2022/04/11 10:50:40;;;;;;;0.28;0.28;;;16.10;51.10;;;;;;5044489;28;20059;-72
2022/04/11 10:53:06;;;;;;;0.40;0.40;;;16.20;51.00;;;;;;5035392;28;20033;-72
2022/04/11 10:55:32;;;;;;;0.40;0.40;;;16.40;51.20;;;;;;5043934;28;20082;-72
2022/04/11 10:58:00;;;;;;;0.73;0.73;;;16.70;50.40;;;;;;5046013;28;20028;-72
2022/04/11 11:00:29;;;;;;;0.10;0.10;;;17.00;49.40;;;;;;5046532;28;20058;-72
2022/04/11 11:03:01;;;;;;;0.20;0.20;;;17.50;48.10;;;;;;5035984;28;20408;-72
2022/04/11 11:05:45;;;;;;;0.30;0.28;;;17.70;46.60;;;;;;5046060;28;20029;-72
2022/04/11 11:08:11;;;;;;;0.35;0.35;;;17.50;45.50;;;;;;5046446;28;20083;-72
2022/04/11 11:10:59;;;;;;;0.98;0.98;;;17.30;46.40;;;;;;5046494;28;20122;-72
2022/04/11 11:13:30;;;;;;;0.10;0.10;;;17.40;45.80;;;;;;5046436;28;20033;-71
2022/04/11 11:16:08;;;;;;;0.10;0.10;;;17.40;46.00;;;;;;5036060;28;20535;-71
2022/04/11 11:18:48;;;;;;;0.40;0.10;;;17.80;46.50;;;;;;5046842;28;20055;-72
2022/04/11 11:21:20;;;;;;;0.50;0.40;;;17.80;45.80;;;;;;5045526;28;20875;-72
2022/04/11 11:24:04;;;;;;;0.50;0.50;;;17.50;45.50;;;;;;5046664;28;20028;-72
2022/04/11 11:26:41;;;;;;;2.75;2.50;;;17.80;45.90;;;;;;5045935;28;20071;-71
2022/04/11 11:29:14;;;;;;;0.30;0.30;;;17.50;47.00;;;;;;5046103;28;20112;-72
2022/04/11 11:31:40;;;;;;;0.40;0.35;;;17.70;47.60;;;;;;5046387;28;20033;-72
2022/04/11 11:34:10;;;;;;;0.22;0.22;;;17.70;48.50;;;;;;5046845;28;20025;-72
2022/04/11 11:36:37;;;;;;;0.10;0.10;;;18.00;47.20;;;;;;5045558;28;20061;-71
2022/04/11 11:39:20;;;;;;;0.77;0.77;;;17.70;46.80;;;;;;5046468;28;20035;-72
2022/04/11 11:41:51;;;;;;;0.20;0.20;;;17.80;46.30;;;;;;5043099;28;20040;-72
2022/04/11 11:44:18;;;;;;;0.10;0.10;;;17.90;46.40;;;;;;5033322;28;20021;-72
2022/04/11 11:46:51;;;;;;;0.75;0.30;;;17.70;47.10;;;;;;5045798;28;20501;-72
2022/04/11 11:49:21;;;;;;;0.38;0.30;;;17.20;47.20;;;;;;5046510;28;20032;-72
2022/04/11 11:51:47;;;;;;;0.73;0.70;;;17.30;47.90;;;;;;5046355;28;20042;-72
2022/04/11 11:54:14;;;;;;;0.70;0.70;;;17.20;46.30;;;;;;5046313;28;20037;-72
2022/04/11 11:56:46;;;;;;;0.10;0.10;;;17.00;47.80;;;;;;5046186;28;20226;-72
2022/04/11 11:59:16;;;;;;;1.45;0.50;;;17.60;48.00;;;;;;5045863;28;20052;-71
2022/04/11 12:04:18;;;;;;;0.20;0.20;;;17.50;46.20;;;;;;5045884;28;20144;-72
2022/04/11 12:04:39;;;;;;;0.10;0.10;;;17.30;45.20;;;;;;5046433;28;20048;-72
2022/04/11 12:07:06;;;;;;;1.33;0.43;;;16.90;45.60;;;;;;5045990;28;20061;-72
2022/04/11 12:09:35;;;;;;;0.10;0.10;;;17.20;45.60;;;;;;5046886;28;20508;-72
2022/04/11 12:12:04;;;;;;;0.40;0.40;;;17.50;46.10;;;;;;5036144;28;20029;-73
2022/04/11 12:14:30;;;;;;;0.43;0.43;;;17.00;47.10;;;;;;5046572;28;20091;-72
2022/04/11 12:17:02;;;;;;;0.65;0.52;;;17.10;47.40;;;;;;5036984;28;20061;-72
2022/04/11 12:19:36;;;;;;;0.10;0.10;;;17.20;47.20;;;;;;5046194;28;20071;-72
2022/04/11 12:22:11;;;;;;;0.43;0.43;;;16.90;47.90;;;;;;5034668;28;20040;-72
2022/04/11 12:24:37;;;;;;;0.88;0.85;;;16.90;48.70;;;;;;5046661;28;20147;-72
2022/04/11 12:27:04;;;;;;;0.20;0.20;;;16.80;48.30;;;;;;5047517;28;20067;-73
2022/04/11 12:29:39;;;;;;;0.40;0.40;;;16.60;49.00;;;;;;5036628;28;20025;-73
2022/04/11 12:32:12;;;;;;;0.20;0.20;;;16.60;48.60;;;;;;5047915;28;20396;-74
2022/04/11 12:34:39;;;;;;;0.43;0.43;;;16.50;48.30;;;;;;5047188;28;20036;-73
2022/04/11 12:37:10;;;;;;;1.45;0.10;;;16.10;48.40;;;;;;5050058;28;20118;-73
2022/04/11 12:40:09;;;;;;;0.10;0.10;;;15.90;49.20;;;;;;5050102;28;20057;-73
2022/04/11 12:42:36;;;;;;;0.10;0.10;;;15.90;49.50;;;;;;4994601;28;20049;-74
2022/04/11 12:45:07;;;;;;;2.92;1.02;;;15.80;49.50;;;;;;5049870;28;20549;-73
2022/04/11 12:47:36;;;;;;;0.20;0.20;;;15.60;50.00;;;;;;5030570;28;20067;-73
2022/04/11 12:50:02;;;;;;;0.60;0.60;;;15.70;50.80;;;;;;5049759;28;20041;-73
2022/04/11 12:52:29;;;;;;;0.10;0.10;;;15.90;48.70;;;;;;5049134;28;20362;-73
2022/04/11 12:55:03;;;;;;;0.38;0.38;;;16.10;49.20;;;;;;5049629;28;20484;-73
2022/04/11 12:57:32;;;;;;;0.10;0.10;;;15.80;49.50;;;;;;5031307;28;20116;-73